Hebron, KY (41048)

5:45 AM EST on December 10, 2016 (GMT -0500)
Delhi | | Change Station

Elev 833 ft 39.11 °N, 84.66 °W | Updated 6 seconds ago

Mostly Cloudy
Mostly Cloudy
19.8 °F
Feels Like 20 °F
N
0.0
Wind Variable Wind from NNE
Gusts 0.9 mph

Today
High -- | Low -- °F
--% Chance of Precip.
Yesterday
High -- | Low -- °F
Precip. -- in
Pressure 30.56 in
Visibility 9.0 miles
Clouds Few 3500 ft
Mostly Cloudy 12000 ft
Windchill 20 °F
Dew Point 18 °F
Humidity 93%
Rainfall 0.00 in
Snow Depth Not available.
7:47 AM 5:16 PM
Waxing Gibbous, 82% visible
METAR KCVG 100952Z 23003KT 9SM FEW035 BKN120 M07/M09 A3053 RMK AO2 SLP348 T10671089
Pressure 30.56 in
Visibility 9.0 miles
Clouds Few 3500 ft
Mostly Cloudy 12000 ft
Windchill 20 °F
Dew Point 18 °F
Humidity 93%
Rainfall 0.00 in
Snow Depth Not available.
7:47 AM 5:16 PM
Waxing Gibbous, 82% visible
METAR KCVG 100952Z 23003KT 9SM FEW035 BKN120 M07/M09 A3053 RMK AO2 SLP348 T10671089

10-Day Weather Forecast

Almanac

Astronomy

Dec. 10, 2016 Rise Set
Actual Time
Civil Twilight
Nautical Twilight
Astronomical Twilight
Moon
Length of Visible Light
Length of Day
Tomorrow will be .
, % of the Moon is Illuminated

Today's Extremes

State Highs State Lows

Community

WunderPhotos

Upload Photos

1,956,536 photos uploaded!

WunderBlog® & News

Nearby

Air Quality

  Air Quality AQ Index Pollutant
Not available.

Snow Depth

Station Depth Elevation

Earthquake Activity

City Distance Mag. Time & Date
Minimum magnitude displayed is 2.5.

Coastal Water Temperatures

Place Temperature

Stations

Nearby Weather Stations

Station Location Temp. Windchill Dew Point Humidity Wind Precip. Elev Updated Type
                   

Watches & Warnings

There are currently no watches in effect.